Airport View

Enter AWOS ICAO identifier for current METAR.

ex. KFNL

KGGI 171155Z AUTO 15005KT 5SM BR SCT080 SCT100 BKN120 01/00 A2994 RMK AO2 T00140000 10022 20010

17 Nov 2019 12:01

Frequency: 120.725

Phone: 641-236-9720

Other Area AWOS: KTNU - KPEA - KMIW - KOXV

TAF KOTM 171120Z 1712/1812 18005KT P6SM OVC090 FM171500 23005KT P6SM VCSH OVC050 TEMPO 1715/1717 5SM -RA BR OVC030 FM171700 31005KT P6SM VCSH OVC025 FM171800 32006KT P6SM OVC015 FM181000 00000KT P6SM BKN010